Time;durP1;ratioP1;P1;durP2;ratioP2;P2;SDS_P1;SDS_P2;PMS_P1;PMS_P2;Temp;Humidity;BMP_temperature;BMP_pressure;BME280_temperature;BME280_humidity;BME280_pressure;Samples;Min_cycle;Max_cycle;Signal;HPM_P1;HPM_P2
2023/01/08 00:02:17;;;;;;;1.98;1.80;;;12.80;79.40;;;;;;5068121;28;20448;-80
2023/01/08 00:04:43;;;;;;;3.63;1.77;;;12.90;79.50;;;;;;5052703;28;20482;-81
2023/01/08 00:07:09;;;;;;;1.92;1.73;;;12.80;79.50;;;;;;5085005;28;20047;-81
2023/01/08 00:09:35;;;;;;;1.80;1.60;;;12.90;79.50;;;;;;5035184;28;20040;-81
2023/01/08 00:12:01;;;;;;;1.73;1.63;;;12.80;79.50;;;;;;5069322;28;20037;-80
2023/01/08 00:14:26;;;;;;;1.70;1.60;;;12.80;79.40;;;;;;5052742;28;20031;-80
2023/01/08 00:16:52;;;;;;;2.35;1.77;;;12.80;79.40;;;;;;5068347;28;20033;-80
2023/01/08 00:19:18;;;;;;;1.83;1.67;;;12.80;79.40;;;;;;5035504;28;20504;-80
2023/01/08 00:21:44;;;;;;;1.80;1.70;;;12.80;79.40;;;;;;5072908;28;20418;-80
2023/01/08 00:24:10;;;;;;;2.00;1.80;;;12.80;80.10;;;;;;5055207;28;20381;-80
2023/01/08 00:26:36;;;;;;;2.25;1.80;;;12.80;79.50;;;;;;5056238;28;20056;-80
2023/01/08 00:29:01;;;;;;;2.28;1.98;;;12.80;79.40;;;;;;5056099;28;20021;-81
2023/01/08 00:31:27;;;;;;;1.90;1.70;;;12.80;79.40;;;;;;5054999;28;20529;-80
2023/01/08 00:33:53;;;;;;;2.10;1.73;;;12.80;79.40;;;;;;5055238;28;20398;-81
2023/01/08 00:36:19;;;;;;;2.17;1.80;;;12.80;79.40;;;;;;5054477;28;20036;-81
2023/01/08 00:38:45;;;;;;;1.52;1.42;;;12.80;79.40;;;;;;5071765;28;20198;-81
2023/01/08 00:41:13;;;;;;;2.10;1.90;;;12.80;79.40;;;;;;5054629;28;20037;-80
2023/01/08 00:43:39;;;;;;;2.50;1.88;;;12.80;79.40;;;;;;5054631;28;20059;-80
2023/01/08 00:46:05;;;;;;;2.17;1.77;;;12.80;79.40;;;;;;5056181;28;20032;-80
2023/01/08 00:48:32;;;;;;;1.83;1.60;;;12.80;79.50;;;;;;5054478;28;20025;-80
2023/01/08 00:51:02;;;;;;;2.03;1.70;;;12.80;79.40;;;;;;5054672;28;20041;-82
2023/01/08 00:53:28;;;;;;;2.03;1.73;;;12.80;79.50;;;;;;5037874;28;20048;-82
2023/01/08 00:56:01;;;;;;;2.40;1.80;;;12.80;79.40;;;;;;5055254;28;20056;-80
2023/01/08 00:58:27;;;;;;;2.40;1.70;;;12.80;79.50;;;;;;5055179;28;20033;-80
2023/01/08 01:00:53;;;;;;;2.08;1.65;;;12.80;79.50;;;;;;5037469;28;20091;-81
2023/01/08 01:03:19;;;;;;;1.90;1.65;;;12.80;79.40;;;;;;5037307;28;20045;-82
2023/01/08 01:05:44;;;;;;;1.98;1.77;;;12.80;79.40;;;;;;5054616;28;20033;-81
2023/01/08 01:08:10;;;;;;;2.50;1.63;;;12.80;79.50;;;;;;5054156;28;20033;-80
2023/01/08 01:10:38;;;;;;;1.60;1.50;;;12.80;79.50;;;;;;5054011;28;20064;-81
2023/01/08 01:13:04;;;;;;;2.53;1.95;;;12.80;79.50;;;;;;5055178;28;20021;-80
2023/01/08 01:15:30;;;;;;;1.70;1.58;;;12.80;79.50;;;;;;5037444;28;20037;-80
2023/01/08 01:17:55;;;;;;;1.65;1.55;;;12.80;79.50;;;;;;5037670;28;20029;-80
2023/01/08 01:20:22;;;;;;;2.38;1.85;;;12.80;79.40;;;;;;5037308;28;20044;-80
2023/01/08 01:22:48;;;;;;;2.08;1.60;;;12.80;79.50;;;;;;5088021;28;20110;-80
2023/01/08 01:25:14;;;;;;;3.15;1.90;;;12.80;79.50;;;;;;5054251;28;20496;-81
2023/01/08 01:27:40;;;;;;;2.28;1.90;;;12.80;79.50;;;;;;5055043;28;20025;-80
2023/01/08 01:30:07;;;;;;;2.15;1.65;;;12.80;79.40;;;;;;5070751;28;20090;-80
2023/01/08 01:32:33;;;;;;;2.00;1.80;;;12.80;79.50;;;;;;5037118;28;20115;-81
2023/01/08 01:34:59;;;;;;;2.00;1.80;;;12.80;79.50;;;;;;5054981;28;20057;-80
2023/01/08 01:37:24;;;;;;;1.63;1.52;;;12.80;79.50;;;;;;5053966;28;20029;-80
2023/01/08 01:39:50;;;;;;;1.92;1.73;;;12.80;79.50;;;;;;5037212;28;20065;-79
2023/01/08 01:45:12;;;;;;;1.88;1.63;;;12.80;79.50;;;;;;5039945;28;20090;-80
2023/01/08 01:47:39;;;;;;;1.73;1.63;;;12.80;79.50;;;;;;5053616;28;20087;-80
2023/01/08 01:50:19;;;;;;;1.67;1.58;;;12.80;79.50;;;;;;5053721;28;20363;-80
2023/01/08 01:53:05;;;;;;;1.92;1.70;;;12.80;79.50;;;;;;5087277;28;20056;-81
2023/01/08 01:55:33;;;;;;;2.08;1.88;;;12.80;79.50;;;;;;5054886;28;20028;-81
2023/01/08 01:58:12;;;;;;;1.60;1.50;;;12.80;79.50;;;;;;5055060;28;20029;-80
2023/01/08 02:00:39;;;;;;;2.25;1.95;;;12.80;79.50;;;;;;5053524;28;20033;-81
2023/01/08 02:03:05;;;;;;;2.00;1.67;;;12.80;79.50;;;;;;5053842;28;20075;-81
2023/01/08 02:05:55;;;;;;;2.47;1.90;;;12.80;79.50;;;;;;5087158;28;20025;-80
2023/01/08 02:08:50;;;;;;;2.58;1.80;;;12.80;79.50;;;;;;5086999;28;20032;-81
2023/01/08 02:11:28;;;;;;;2.75;2.00;;;12.80;79.60;;;;;;5054086;28;20052;-79
2023/01/08 02:14:06;;;;;;;2.22;1.88;;;12.80;79.50;;;;;;5070660;28;20033;-81
2023/01/08 02:16:49;;;;;;;1.70;1.60;;;12.80;79.50;;;;;;5070584;28;20029;-80
2023/01/08 02:19:20;;;;;;;1.90;1.60;;;12.80;79.50;;;;;;5054650;28;20052;-80
2023/01/08 02:22:01;;;;;;;2.55;1.80;;;12.80;79.50;;;;;;5053097;28;20465;-80
2023/01/08 02:24:50;;;;;;;2.35;1.85;;;12.80;79.50;;;;;;5053321;28;20056;-79
2023/01/08 02:27:18;;;;;;;2.13;1.90;;;12.70;79.60;;;;;;5053817;28;20108;-80
2023/01/08 02:29:44;;;;;;;2.40;1.80;;;12.70;79.50;;;;;;5053970;28;20122;-80
2023/01/08 02:32:10;;;;;;;2.38;1.80;;;12.70;79.50;;;;;;5052694;28;20365;-80
2023/01/08 02:34:36;;;;;;;3.30;1.90;;;12.70;79.50;;;;;;5036348;28;20367;-80
2023/01/08 02:37:01;;;;;;;2.33;1.83;;;12.70;79.50;;;;;;5086588;28;20087;-80
2023/01/08 02:39:48;;;;;;;2.88;2.08;;;12.70;79.50;;;;;;5069415;28;20045;-80
2023/01/08 02:42:37;;;;;;;2.35;1.95;;;12.70;79.50;;;;;;5053065;28;20355;-80
2023/01/08 02:45:16;;;;;;;2.15;1.80;;;12.70;79.50;;;;;;5053441;28;20036;-80
2023/01/08 02:47:48;;;;;;;2.05;1.80;;;12.70;79.50;;;;;;5064518;28;20118;-81
2023/01/08 02:50:25;;;;;;;1.83;1.70;;;12.70;79.50;;;;;;5053470;28;20456;-81
2023/01/08 02:53:23;;;;;;;2.10;1.75;;;12.70;79.50;;;;;;5053839;28;20025;-80
2023/01/08 02:55:56;;;;;;;1.80;1.70;;;12.70;79.60;;;;;;5051732;28;20037;-80
2023/01/08 02:58:25;;;;;;;2.63;1.80;;;12.70;79.50;;;;;;5053077;28;20360;-81
2023/01/08 03:00:53;;;;;;;1.95;1.70;;;12.70;79.50;;;;;;5052294;28;20044;-81
2023/01/08 03:03:23;;;;;;;2.13;1.90;;;12.70;79.50;;;;;;5051882;28;20045;-81
2023/01/08 03:05:54;;;;;;;1.92;1.67;;;12.70;79.50;;;;;;5052282;28;20028;-80
2023/01/08 03:08:22;;;;;;;2.03;1.70;;;12.70;79.50;;;;;;5052575;28;20040;-80
2023/01/08 03:10:54;;;;;;;1.77;1.67;;;12.70;79.50;;;;;;5052399;28;20075;-81
2023/01/08 03:13:43;;;;;;;2.17;1.80;;;12.70;79.50;;;;;;5052402;28;20052;-81
2023/01/08 03:16:14;;;;;;;1.77;1.65;;;12.70;79.60;;;;;;5052686;28;20029;-81
2023/01/08 03:18:47;;;;;;;3.72;1.80;;;12.70;79.50;;;;;;5052236;28;20036;-81
2023/01/08 03:21:15;;;;;;;1.83;1.63;;;12.70;79.50;;;;;;5085531;28;20037;-82
2023/01/08 03:23:43;;;;;;;1.92;1.65;;;12.70;79.60;;;;;;5086004;28;20028;-80
2023/01/08 03:26:12;;;;;;;2.33;1.73;;;12.70;79.60;;;;;;5052108;28;20474;-81
2023/01/08 03:28:44;;;;;;;1.52;1.42;;;12.70;79.60;;;;;;5051516;28;20041;-81
2023/01/08 03:31:12;;;;;;;2.22;1.63;;;12.70;79.60;;;;;;5068278;28;20102;-81
2023/01/08 03:33:39;;;;;;;1.70;1.60;;;12.70;79.60;;;;;;5052457;28;20037;-81
2023/01/08 03:36:06;;;;;;;1.52;1.42;;;12.70;79.60;;;;;;5052426;28;20037;-80
2023/01/08 03:38:38;;;;;;;2.50;1.48;;;12.70;79.60;;;;;;5053484;28;20481;-80
2023/01/08 03:41:08;;;;;;;2.35;1.45;;;12.70;79.60;;;;;;5051852;28;20486;-83
2023/01/08 03:43:34;;;;;;;1.50;1.40;;;12.70;79.60;;;;;;5053766;28;20482;-80
2023/01/08 03:46:03;;;;;;;1.60;1.33;;;12.60;79.60;;;;;;5035661;28;20067;-81
2023/01/08 03:48:32;;;;;;;1.63;1.40;;;12.70;79.60;;;;;;5051402;28;20112;-80
2023/01/08 03:50:58;;;;;;;1.63;1.40;;;12.70;79.70;;;;;;5068729;28;20067;-81
2023/01/08 03:53:24;;;;;;;2.28;1.60;;;12.70;79.60;;;;;;5051963;28;20474;-80
2023/01/08 03:55:50;;;;;;;1.48;1.30;;;12.60;79.60;;;;;;5056308;28;20037;-81
2023/01/08 03:58:15;;;;;;;1.65;1.40;;;12.60;79.60;;;;;;5056743;28;20393;-80
2023/01/08 04:00:41;;;;;;;1.73;1.20;;;12.60;79.60;;;;;;5072323;28;20381;-81
2023/01/08 04:03:07;;;;;;;1.40;1.30;;;12.60;79.60;;;;;;5072003;28;20489;-82
2023/01/08 04:05:33;;;;;;;1.38;1.27;;;12.60;79.60;;;;;;5039020;28;20373;-80
2023/01/08 04:07:58;;;;;;;1.48;1.38;;;12.60;79.60;;;;;;5073090;28;20120;-82
2023/01/08 04:10:24;;;;;;;2.03;1.50;;;12.60;79.60;;;;;;5055687;28;20040;-81
2023/01/08 04:12:50;;;;;;;1.23;1.10;;;12.60;79.60;;;;;;5072151;28;20052;-81
2023/01/08 04:15:16;;;;;;;1.60;1.35;;;12.60;79.60;;;;;;5038636;28;20139;-80
2023/01/08 04:17:42;;;;;;;2.15;1.50;;;12.60;79.60;;;;;;5055287;28;20029;-82
2023/01/08 04:20:08;;;;;;;1.80;1.30;;;12.60;79.60;;;;;;5054927;28;20047;-82
2023/01/08 04:22:34;;;;;;;1.80;1.33;;;12.60;79.70;;;;;;5055196;28;20048;-80
2023/01/08 04:25:00;;;;;;;1.30;1.20;;;12.50;79.60;;;;;;5055908;28;20119;-80
2023/01/08 04:27:26;;;;;;;1.30;1.20;;;12.50;79.60;;;;;;5039264;28;20037;-80
2023/01/08 04:29:51;;;;;;;1.55;1.27;;;12.60;79.60;;;;;;5071832;28;20098;-80
2023/01/08 04:32:17;;;;;;;1.92;1.30;;;12.50;79.60;;;;;;5038604;28;20471;-81
2023/01/08 04:34:43;;;;;;;1.33;1.23;;;12.50;79.60;;;;;;5071873;28;20029;-82
2023/01/08 04:37:09;;;;;;;1.20;1.20;;;12.50;79.60;;;;;;5038612;28;20041;-81
2023/01/08 04:39:34;;;;;;;1.55;1.38;;;12.50;79.60;;;;;;5054876;28;20079;-80
2023/01/08 04:42:00;;;;;;;1.50;1.15;;;12.50;79.60;;;;;;5071694;28;20461;-80
2023/01/08 04:44:26;;;;;;;1.30;1.20;;;12.50;79.60;;;;;;5038535;28;20052;-80
2023/01/08 04:46:52;;;;;;;1.42;1.23;;;12.50;79.60;;;;;;5071471;28;20424;-81
2023/01/08 04:49:18;;;;;;;1.48;1.30;;;12.50;79.70;;;;;;5039200;28;20067;-81
2023/01/08 04:51:44;;;;;;;1.08;1.08;;;12.50;79.70;;;;;;5056495;28;20083;-80
2023/01/08 04:54:09;;;;;;;1.60;1.30;;;12.40;79.60;;;;;;5056202;28;20040;-81
2023/01/08 04:56:35;;;;;;;1.52;1.40;;;12.50;79.70;;;;;;5038773;28;20404;-79
2023/01/08 04:59:01;;;;;;;1.38;1.20;;;12.40;80.20;;;;;;5056006;28;20036;-80
2023/01/08 05:01:27;;;;;;;1.50;1.10;;;12.40;79.60;;;;;;5037773;28;20029;-80
2023/01/08 05:03:55;;;;;;;1.20;1.20;;;12.40;79.70;;;;;;5037912;28;20120;-80
2023/01/08 05:06:21;;;;;;;1.60;1.10;;;12.40;79.70;;;;;;5037312;28;20048;-80
2023/01/08 05:08:46;;;;;;;1.30;1.20;;;12.40;79.60;;;;;;5053975;28;20033;-81
2023/01/08 05:11:12;;;;;;;1.13;1.00;;;12.40;79.70;;;;;;5054532;28;20026;-81
2023/01/08 05:13:38;;;;;;;1.20;1.10;;;12.40;79.70;;;;;;5038522;28;20029;-80
2023/01/08 05:16:04;;;;;;;1.20;1.10;;;12.40;79.70;;;;;;5070893;28;20487;-80
2023/01/08 05:18:29;;;;;;;1.63;1.10;;;12.40;79.70;;;;;;5055424;28;20021;-81
2023/01/08 05:21:03;;;;;;;1.20;1.10;;;12.40;79.70;;;;;;5054223;28;20045;-80
2023/01/08 05:23:30;;;;;;;1.55;1.10;;;12.30;79.70;;;;;;5054336;28;20064;-83
2023/01/08 05:26:01;;;;;;;1.63;1.13;;;12.30;79.70;;;;;;5054334;28;20025;-80
2023/01/08 05:28:27;;;;;;;2.33;1.10;;;12.30;79.70;;;;;;5055151;28;20040;-80
2023/01/08 05:30:53;;;;;;;1.10;1.00;;;12.30;79.70;;;;;;5055043;28;20477;-79
2023/01/08 05:33:19;;;;;;;1.30;1.20;;;12.30;79.70;;;;;;5037486;28;20079;-81
2023/01/08 05:35:45;;;;;;;1.30;1.20;;;12.30;79.70;;;;;;5053994;28;20056;-81
2023/01/08 05:38:11;;;;;;;1.27;1.17;;;12.30;79.70;;;;;;5087683;28;20028;-80
2023/01/08 05:40:37;;;;;;;1.17;1.10;;;12.30;79.80;;;;;;5037038;28;20375;-81
2023/01/08 05:43:04;;;;;;;1.25;1.13;;;12.30;79.70;;;;;;5070748;28;20029;-80
2023/01/08 05:45:30;;;;;;;2.13;1.27;;;12.30;79.80;;;;;;5036782;28;20032;-82
2023/01/08 05:47:56;;;;;;;1.25;1.00;;;12.30;79.80;;;;;;5053589;28;20480;-80
2023/01/08 05:50:22;;;;;;;1.33;1.10;;;12.30;79.80;;;;;;5037093;28;20123;-80
2023/01/08 05:52:47;;;;;;;1.15;1.05;;;12.20;79.70;;;;;;5054576;28;20037;-80
2023/01/08 05:55:13;;;;;;;1.50;1.17;;;12.20;79.70;;;;;;5087660;28;20402;-83
2023/01/08 05:57:39;;;;;;;1.25;1.10;;;12.20;80.30;;;;;;5054714;28;20033;-80
2023/01/08 06:00:07;;;;;;;1.30;1.20;;;12.20;79.70;;;;;;5053146;28;20040;-80
2023/01/08 06:02:37;;;;;;;1.10;1.00;;;12.20;79.80;;;;;;5053089;28;20025;-80
2023/01/08 06:05:03;;;;;;;1.63;1.20;;;12.20;79.80;;;;;;5053718;28;20036;-81
2023/01/08 06:07:29;;;;;;;1.30;1.20;;;12.20;79.70;;;;;;5036707;28;20025;-80
2023/01/08 06:09:55;;;;;;;1.15;1.05;;;12.20;79.70;;;;;;5086462;28;20102;-82
2023/01/08 06:12:21;;;;;;;1.60;1.25;;;12.20;79.70;;;;;;5086421;28;20036;-80
2023/01/08 06:14:46;;;;;;;1.30;1.00;;;12.20;79.80;;;;;;5054012;28;20124;-80
2023/01/08 06:17:13;;;;;;;1.20;1.10;;;12.20;79.80;;;;;;5069691;28;20056;-80
2023/01/08 06:19:39;;;;;;;1.83;1.30;;;12.20;79.80;;;;;;5052983;28;20569;-79
2023/01/08 06:22:05;;;;;;;0.90;0.90;;;12.10;79.90;;;;;;5037119;28;20116;-80
2023/01/08 06:24:31;;;;;;;1.13;1.02;;;12.20;79.80;;;;;;5036540;28;20029;-81
2023/01/08 06:26:57;;;;;;;1.20;1.10;;;12.10;79.80;;;;;;5036630;28;20040;-80
2023/01/08 06:29:22;;;;;;;1.40;1.30;;;12.10;79.70;;;;;;5053855;28;20037;-80
2023/01/08 06:31:48;;;;;;;1.20;1.10;;;12.10;79.70;;;;;;5052954;28;20033;-80
2023/01/08 06:34:14;;;;;;;1.33;1.23;;;12.10;79.70;;;;;;5052978;28;20036;-80
2023/01/08 06:36:40;;;;;;;2.05;1.10;;;12.10;79.80;;;;;;5069764;28;20029;-80
2023/01/08 06:39:06;;;;;;;2.20;1.45;;;12.10;79.80;;;;;;5069368;28;20029;-82
2023/01/08 06:41:32;;;;;;;1.15;0.95;;;12.10;79.80;;;;;;5052578;28;20035;-81
2023/01/08 06:43:58;;;;;;;1.08;1.00;;;12.10;79.80;;;;;;5052912;28;20041;-81
2023/01/08 06:46:24;;;;;;;1.50;1.20;;;12.10;79.80;;;;;;5069541;28;20606;-80
2023/01/08 06:48:49;;;;;;;1.23;1.13;;;12.10;79.80;;;;;;5036305;28;20476;-81
2023/01/08 06:51:15;;;;;;;1.20;1.10;;;12.00;79.70;;;;;;5053888;28;20033;-80
2023/01/08 06:53:41;;;;;;;1.40;1.20;;;12.00;79.80;;;;;;5052438;28;20079;-80
2023/01/08 06:56:09;;;;;;;1.20;1.10;;;12.00;79.80;;;;;;5052763;28;20036;-81
2023/01/08 06:58:37;;;;;;;1.65;1.10;;;12.00;79.80;;;;;;5052424;28;20029;-81
2023/01/08 07:01:03;;;;;;;1.00;1.00;;;12.00;79.80;;;;;;5052378;28;20033;-80
2023/01/08 07:03:29;;;;;;;1.58;1.20;;;12.00;79.80;;;;;;5053801;28;20144;-80
2023/01/08 07:05:55;;;;;;;0.95;0.93;;;12.00;79.80;;;;;;5035881;28;20452;-80
2023/01/08 07:08:21;;;;;;;1.08;1.08;;;12.00;79.80;;;;;;5052305;28;20163;-80
2023/01/08 07:10:47;;;;;;;1.15;1.08;;;11.90;79.80;;;;;;5053760;28;20037;-80
2023/01/08 07:13:14;;;;;;;1.20;1.10;;;11.90;79.80;;;;;;5068968;28;20017;-81
2023/01/08 07:15:41;;;;;;;1.65;1.15;;;11.90;79.80;;;;;;5035358;28;20025;-81
2023/01/08 07:18:08;;;;;;;1.40;1.15;;;11.90;79.80;;;;;;5052614;28;20409;-81
2023/01/08 07:20:34;;;;;;;1.15;1.13;;;11.90;79.80;;;;;;5053525;28;20037;-81
2023/01/08 07:23:02;;;;;;;1.45;1.17;;;11.90;79.80;;;;;;5052189;28;20029;-80
2023/01/08 07:25:28;;;;;;;1.10;1.08;;;11.90;79.90;;;;;;5051917;28;20104;-80
2023/01/08 07:27:53;;;;;;;1.33;1.23;;;11.80;79.80;;;;;;5053023;28;20025;-79
2023/01/08 07:30:19;;;;;;;1.30;1.20;;;11.80;79.80;;;;;;5037863;28;20043;-82
2023/01/08 07:32:45;;;;;;;2.30;1.17;;;11.80;79.80;;;;;;5039583;28;20025;-80
2023/01/08 07:35:10;;;;;;;1.30;1.20;;;11.80;79.80;;;;;;5057290;28;20041;-82
2023/01/08 07:37:40;;;;;;;1.48;1.20;;;11.80;79.80;;;;;;5056128;28;20029;-80
2023/01/08 07:40:08;;;;;;;1.33;1.17;;;11.80;79.80;;;;;;5056257;28;20478;-80
2023/01/08 07:42:34;;;;;;;1.98;1.30;;;11.80;79.80;;;;;;5056103;28;20361;-80
2023/01/08 07:44:59;;;;;;;1.40;1.10;;;11.70;79.80;;;;;;5057432;28;20025;-80
2023/01/08 07:47:25;;;;;;;1.33;1.15;;;11.70;79.80;;;;;;5089375;28;20029;-80
2023/01/08 07:49:51;;;;;;;3.22;1.17;;;11.70;79.80;;;;;;5039376;28;20409;-81
2023/01/08 07:52:16;;;;;;;1.55;1.20;;;11.70;79.80;;;;;;5056865;28;20032;-80
2023/01/08 07:54:42;;;;;;;1.10;1.10;;;11.70;79.80;;;;;;5072775;28;20037;-80
2023/01/08 07:57:08;;;;;;;2.25;1.10;;;11.60;79.80;;;;;;5055478;28;20029;-81
2023/01/08 07:59:34;;;;;;;1.42;1.20;;;11.60;79.80;;;;;;5039227;28;20094;-81
2023/01/08 08:01:59;;;;;;;1.75;1.30;;;11.60;79.80;;;;;;5039252;28;20029;-81
2023/01/08 08:04:25;;;;;;;1.20;1.10;;;11.60;79.80;;;;;;5039219;28;20068;-80
2023/01/08 08:06:52;;;;;;;1.58;1.30;;;11.60;79.80;;;;;;5039465;28;20052;-81
2023/01/08 08:09:18;;;;;;;2.03;1.27;;;11.60;79.80;;;;;;5039306;28;20056;-80
2023/01/08 08:11:43;;;;;;;1.70;1.10;;;11.60;79.90;;;;;;5055556;28;20363;-81
2023/01/08 08:14:09;;;;;;;2.00;1.20;;;11.50;79.80;;;;;;5072345;28;20036;-81
2023/01/08 08:16:35;;;;;;;1.00;1.00;;;11.50;79.80;;;;;;5055452;28;20063;-81
2023/01/08 08:19:00;;;;;;;1.20;1.05;;;11.50;79.80;;;;;;5089242;28;20025;-82
2023/01/08 08:21:28;;;;;;;1.23;1.13;;;11.50;79.80;;;;;;5055144;28;20045;-81
2023/01/08 08:23:54;;;;;;;1.30;1.20;;;11.50;79.90;;;;;;5056336;28;20048;-80
2023/01/08 08:26:20;;;;;;;1.20;1.10;;;11.50;79.80;;;;;;5055495;28;20029;-80
2023/01/08 08:28:45;;;;;;;1.48;1.17;;;11.40;79.80;;;;;;5055974;28;20028;-77
2023/01/08 08:31:11;;;;;;;1.50;1.08;;;11.40;79.80;;;;;;5038447;28;20060;-80
2023/01/08 08:33:37;;;;;;;1.25;1.15;;;11.40;79.80;;;;;;5055599;28;20374;-81
2023/01/08 08:36:03;;;;;;;1.88;1.20;;;11.40;79.90;;;;;;5055193;28;20025;-77
2023/01/08 08:38:29;;;;;;;3.78;1.42;;;11.40;79.90;;;;;;5071455;28;20025;-80
2023/01/08 08:40:55;;;;;;;1.20;1.10;;;11.40;79.90;;;;;;5053581;28;20390;-79
2023/01/08 08:43:20;;;;;;;1.65;1.17;;;11.30;79.80;;;;;;5037700;28;20458;-81
2023/01/08 08:45:46;;;;;;;1.20;1.10;;;11.30;79.80;;;;;;5038632;28;20033;-79
2023/01/08 08:48:12;;;;;;;1.00;1.00;;;11.30;79.80;;;;;;5055879;28;20446;-78
2023/01/08 08:50:38;;;;;;;1.30;1.20;;;11.30;79.80;;;;;;5054453;28;20543;-79
2023/01/08 08:53:05;;;;;;;1.55;1.27;;;11.30;79.80;;;;;;5054576;28;20052;-79
2023/01/08 08:55:32;;;;;;;1.77;1.25;;;11.30;79.80;;;;;;5037974;28;20377;-79
2023/01/08 08:58:03;;;;;;;1.70;1.20;;;11.30;79.90;;;;;;5071218;28;20036;-79
2023/01/08 09:00:28;;;;;;;1.33;1.23;;;11.20;79.80;;;;;;5055920;28;20047;-79
2023/01/08 09:02:54;;;;;;;1.38;1.27;;;11.20;79.80;;;;;;5055987;28;20052;-80
2023/01/08 09:05:20;;;;;;;1.40;1.15;;;11.20;79.80;;;;;;5055202;28;20034;-81
2023/01/08 09:07:46;;;;;;;1.98;1.20;;;11.20;79.80;;;;;;5055281;28;20033;-81
2023/01/08 09:10:11;;;;;;;1.25;1.08;;;11.20;79.80;;;;;;5037922;28;20044;-79
2023/01/08 09:12:37;;;;;;;1.20;1.10;;;11.20;79.90;;;;;;5055263;28;20365;-79
2023/01/08 09:15:04;;;;;;;1.00;1.00;;;11.10;79.80;;;;;;5087650;28;20125;-80
2023/01/08 09:17:30;;;;;;;1.48;1.20;;;11.20;79.90;;;;;;5037567;28;20072;-78
2023/01/08 09:19:55;;;;;;;1.92;1.10;;;11.20;79.90;;;;;;5053742;28;20483;-80
2023/01/08 09:22:21;;;;;;;1.30;1.20;;;11.10;79.90;;;;;;5070936;28;20060;-80
2023/01/08 09:24:47;;;;;;;1.63;1.20;;;11.10;80.00;;;;;;5088038;28;20429;-82
2023/01/08 09:27:13;;;;;;;1.85;1.20;;;11.10;79.90;;;;;;5070782;28;20025;-81
2023/01/08 09:29:39;;;;;;;1.17;1.00;;;11.10;79.90;;;;;;5053577;28;20033;-80
2023/01/08 09:32:06;;;;;;;1.08;1.00;;;11.10;79.90;;;;;;5037302;28;20052;-80
2023/01/08 09:34:32;;;;;;;1.33;1.10;;;11.10;80.00;;;;;;5053828;28;20025;-80
2023/01/08 09:36:58;;;;;;;1.23;1.13;;;11.10;79.90;;;;;;5070536;28;20037;-79
2023/01/08 09:39:24;;;;;;;2.50;1.30;;;11.10;79.90;;;;;;5036997;28;20029;-79
2023/01/08 09:41:51;;;;;;;1.20;1.10;;;11.10;79.90;;;;;;5054936;28;20029;-79
2023/01/08 09:44:23;;;;;;;1.30;1.20;;;11.10;79.90;;;;;;5037637;28;20098;-80
2023/01/08 09:46:49;;;;;;;2.92;1.35;;;11.10;79.90;;;;;;5053720;28;20060;-80
2023/01/08 09:49:28;;;;;;;1.00;1.00;;;11.10;80.00;;;;;;5037188;28;20530;-81
2023/01/08 09:51:54;;;;;;;1.60;1.10;;;11.10;79.90;;;;;;5054112;28;20098;-81
2023/01/08 09:54:23;;;;;;;1.30;1.20;;;11.10;79.90;;;;;;5070221;28;20021;-81
2023/01/08 09:56:49;;;;;;;2.35;1.30;;;11.20;80.00;;;;;;5054828;28;20025;-80
2023/01/08 09:59:19;;;;;;;1.55;1.10;;;11.10;79.90;;;;;;5053330;28;20037;-80
2023/01/08 10:01:45;;;;;;;1.20;1.15;;;11.10;80.00;;;;;;5053450;28;20052;-80
2023/01/08 10:04:13;;;;;;;1.33;1.10;;;11.10;79.90;;;;;;5036724;28;20132;-80
2023/01/08 10:06:40;;;;;;;1.73;1.20;;;11.10;80.00;;;;;;5053340;28;20086;-80
2023/01/08 10:09:11;;;;;;;1.35;1.25;;;11.10;79.90;;;;;;5036629;28;20433;-79
2023/01/08 10:11:42;;;;;;;2.55;1.45;;;11.10;79.90;;;;;;5037769;28;20028;-80
2023/01/08 10:14:24;;;;;;;1.95;1.15;;;11.10;79.90;;;;;;5053032;28;20033;-79
2023/01/08 10:17:39;;;;;;;1.42;1.30;;;11.10;79.90;;;;;;5053088;28;20024;-79
2023/01/08 10:20:16;;;;;;;1.20;1.10;;;11.10;80.00;;;;;;5051825;28;20091;-79
2023/01/08 10:22:43;;;;;;;1.48;1.20;;;11.10;79.90;;;;;;5051851;28;20083;-80
2023/01/08 10:25:12;;;;;;;1.30;1.20;;;11.10;79.90;;;;;;5044936;28;20050;-77
2023/01/08 10:27:47;;;;;;;1.33;1.10;;;11.10;80.00;;;;;;5053019;28;20040;-80
2023/01/08 10:30:27;;;;;;;2.10;1.20;;;11.10;80.00;;;;;;5052825;28;20056;-80
2023/01/08 10:32:55;;;;;;;1.25;1.10;;;11.00;80.00;;;;;;5053279;28;20020;-81
2023/01/08 10:35:30;;;;;;;2.08;1.50;;;11.10;80.10;;;;;;5052791;28;20112;-82
2023/01/08 10:37:56;;;;;;;2.05;1.17;;;11.10;80.10;;;;;;5086088;28;20033;-82
2023/01/08 10:40:41;;;;;;;1.27;1.17;;;11.10;80.00;;;;;;5036261;28;20347;-82
2023/01/08 10:43:18;;;;;;;2.00;1.15;;;11.10;80.00;;;;;;5053235;28;20068;-82
2023/01/08 10:45:55;;;;;;;1.63;1.35;;;11.10;80.00;;;;;;5053001;28;20029;-81
2023/01/08 10:48:33;;;;;;;1.50;1.15;;;11.10;80.00;;;;;;5053515;28;20025;-82
2023/01/08 10:51:22;;;;;;;1.52;1.30;;;11.10;80.00;;;;;;5053648;28;20351;-84
2023/01/08 10:53:48;;;;;;;2.40;1.40;;;11.10;80.10;;;;;;5053637;28;20040;-85
2023/01/08 10:56:26;;;;;;;3.00;1.30;;;11.10;80.00;;;;;;5036426;28;20082;-84
2023/01/08 10:58:52;;;;;;;2.90;1.70;;;11.10;80.10;;;;;;5053226;28;20074;-84
2023/01/08 11:01:21;;;;;;;4.03;1.77;;;11.00;80.00;;;;;;5037276;28;20055;-84
2023/01/08 11:03:52;;;;;;;1.88;1.40;;;11.00;80.00;;;;;;5052573;28;20139;-84
2023/01/08 11:06:22;;;;;;;2.35;1.50;;;11.00;80.10;;;;;;5052976;28;20032;-85
2023/01/08 11:08:54;;;;;;;3.50;1.60;;;11.00;80.00;;;;;;5053826;28;20040;-84
2023/01/08 11:11:20;;;;;;;2.13;1.60;;;11.00;80.00;;;;;;5053911;28;20116;-82
2023/01/08 11:14:18;;;;;;;1.90;1.27;;;11.00;80.00;;;;;;5052267;28;20033;-81
2023/01/08 11:16:45;;;;;;;2.08;1.55;;;11.00;80.10;;;;;;5052386;28;20039;-81
2023/01/08 11:19:21;;;;;;;1.80;1.30;;;11.00;80.00;;;;;;5053807;28;20044;-81
2023/01/08 11:22:17;;;;;;;3.03;1.58;;;11.00;80.10;;;;;;5052242;28;20044;-81
2023/01/08 11:24:44;;;;;;;3.08;2.05;;;11.00;80.20;;;;;;5053128;28;20616;-81
2023/01/08 11:27:10;;;;;;;2.45;1.52;;;11.00;80.10;;;;;;5068998;28;20167;-80
2023/01/08 11:29:58;;;;;;;2.00;1.45;;;11.00;80.20;;;;;;5053859;28;20086;-82
2023/01/08 11:32:39;;;;;;;3.28;1.30;;;11.00;80.20;;;;;;5052062;28;20029;-81
2023/01/08 11:35:13;;;;;;;1.65;1.35;;;11.00;80.10;;;;;;5085777;28;20114;-81
2023/01/08 11:37:48;;;;;;;2.97;1.58;;;11.00;80.10;;;;;;5051949;28;20027;-81
2023/01/08 11:40:16;;;;;;;2.60;1.50;;;11.00;80.20;;;;;;5052534;28;20041;-82
2023/01/08 11:43:19;;;;;;;3.25;1.50;;;11.00;80.20;;;;;;5052626;28;20024;-82
2023/01/08 11:45:53;;;;;;;1.80;1.23;;;11.10;80.30;;;;;;5052246;28;20033;-81
2023/01/08 11:48:57;;;;;;;1.80;1.45;;;11.10;80.20;;;;;;5052134;28;20470;-79
2023/01/08 11:51:49;;;;;;;2.47;1.52;;;11.00;80.20;;;;;;5051647;28;20140;-81
2023/01/08 11:54:24;;;;;;;1.70;1.40;;;11.10;80.30;;;;;;5035418;28;20079;-79
2023/01/08 11:57:08;;;;;;;2.58;1.50;;;11.10;80.20;;;;;;5052256;28;20033;-84
2023/01/08 11:59:57;;;;;;;1.90;1.33;;;11.10;80.20;;;;;;5051827;28;20033;-78
2023/01/08 12:02:53;;;;;;;1.45;1.35;;;11.10;80.20;;;;;;5074980;28;20061;-80
2023/01/08 12:05:54;;;;;;;1.30;1.20;;;11.10;80.20;;;;;;5052086;28;20037;-81
2023/01/08 12:08:28;;;;;;;1.20;1.10;;;11.10;80.10;;;;;;5068581;28;20029;-81
2023/01/08 12:11:08;;;;;;;1.50;1.30;;;11.10;80.10;;;;;;5052608;28;20489;-81
2023/01/08 12:13:46;;;;;;;1.50;1.20;;;11.10;80.30;;;;;;5052067;28;20036;-80
2023/01/08 12:16:18;;;;;;;1.70;1.30;;;11.10;80.30;;;;;;5055314;28;20033;-81
2023/01/08 12:19:03;;;;;;;1.40;1.30;;;11.10;80.40;;;;;;5055175;28;20044;-81
2023/01/08 12:21:41;;;;;;;1.67;1.30;;;11.10;80.40;;;;;;5056287;28;20029;-81
2023/01/08 12:24:49;;;;;;;1.40;1.30;;;11.10;80.40;;;;;;5055767;28;20040;-81
2023/01/08 12:27:33;;;;;;;2.45;1.40;;;11.10;80.40;;;;;;5054740;28;20107;-81
2023/01/08 12:30:14;;;;;;;2.00;1.40;;;11.10;80.40;;;;;;5055132;28;20091;-81
2023/01/08 12:32:46;;;;;;;1.23;1.13;;;11.10;80.40;;;;;;5055317;28;20382;-82
2023/01/08 12:35:20;;;;;;;1.75;1.30;;;11.10;80.40;;;;;;5072013;28;20029;-81
2023/01/08 12:37:55;;;;;;;1.30;1.17;;;11.20;80.50;;;;;;5072076;28;20484;-82
2023/01/08 12:40:21;;;;;;;2.15;1.40;;;11.20;80.50;;;;;;5054992;28;20037;-81
2023/01/08 12:42:47;;;;;;;1.27;1.23;;;11.20;80.50;;;;;;5054913;28;20029;-81
2023/01/08 12:45:31;;;;;;;1.27;1.17;;;11.20;80.50;;;;;;5055144;28;20036;-80
2023/01/08 12:48:11;;;;;;;2.28;1.20;;;11.20;80.60;;;;;;5054839;28;20470;-81
2023/01/08 12:50:40;;;;;;;1.80;1.10;;;11.20;80.40;;;;;;5056184;28;20029;-81
2023/01/08 12:53:25;;;;;;;1.10;1.00;;;11.20;80.40;;;;;;5055594;28;20029;-81
2023/01/08 12:56:02;;;;;;;;;;;11.30;81.20;;;;;;5055177;28;20029;-81
2023/01/08 12:58:37;;;;;;;1.00;1.00;;;11.20;80.30;;;;;;5054682;28;19931;-80
2023/01/08 13:01:09;;;;;;;1.10;1.10;;;11.30;80.30;;;;;;5054462;28;20043;-80
2023/01/08 13:03:35;;;;;;;1.13;1.13;;;11.30;80.40;;;;;;5054005;28;20067;-84
2023/01/08 13:06:17;;;;;;;0.93;0.90;;;11.30;80.40;;;;;;5054642;28;20029;-80